Time;durP1;ratioP1;P1;durP2;ratioP2;P2;SDS_P1;SDS_P2;PMS_P1;PMS_P2;Temp;Humidity;BMP_temperature;BMP_pressure;BME280_temperature;BME280_humidity;BME280_pressure;Samples;Min_cycle;Max_cycle;Signal;HPM_P1;HPM_P2
2023/10/02 00:01:06;;;;;;;0.20;0.10;;;;;;;;;;5004219;28;20506;-86
2023/10/02 00:03:29;;;;;;;0.30;0.25;;;;;;;;;;5017757;28;20045;-87
2023/10/02 00:05:55;;;;;;;0.20;0.20;;;;;;;;;;5017665;28;20029;-86
2023/10/02 00:08:41;;;;;;;0.85;0.85;;;;;;;;;;5012960;28;20099;-86
2023/10/02 00:11:35;;;;;;;0.85;0.85;;;;;;;;;;5031564;28;20095;-86
2023/10/02 00:14:18;;;;;;;0.20;0.15;;;;;;;;;;5023201;28;20045;-86
2023/10/02 00:16:42;;;;;;;0.20;0.10;;;;;;;;;;5016235;28;20532;-86
2023/10/02 00:19:27;;;;;;;0.63;0.63;;;;;;;;;;5002237;28;20041;-87
2023/10/02 00:21:55;;;;;;;0.47;0.43;;;;;;;;;;5014422;28;20582;-86
2023/10/02 00:24:24;;;;;;;0.20;0.10;;;;;;;;;;5001775;28;20057;-87
2023/10/02 00:26:51;;;;;;;0.55;0.40;;;;;;;;;;5020139;28;20041;-87
2023/10/02 00:29:17;;;;;;;1.20;0.30;;;;;;;;;;5003530;28;20068;-86
2023/10/02 00:31:46;;;;;;;0.77;0.77;;;;;;;;;;5013382;28;20517;-86
2023/10/02 00:34:15;;;;;;;0.30;0.20;;;;;;;;;;5010314;28;20512;-88
2023/10/02 00:36:42;;;;;;;0.38;0.38;;;;;;;;;;5000230;28;20060;-86
2023/10/02 00:39:30;;;;;;;0.30;0.15;;;;;;;;;;5004075;28;20034;-87
2023/10/02 00:42:15;;;;;;;0.50;0.50;;;;;;;;;;5016091;28;20418;-87
2023/10/02 00:44:54;;;;;;;0.45;0.45;;;;;;;;;;4998008;28;20072;-87
2023/10/02 00:47:41;;;;;;;0.20;0.17;;;;;;;;;;5014110;28;20294;-87
2023/10/02 00:50:10;;;;;;;0.20;0.10;;;;;;;;;;5015084;28;20110;-89
2023/10/02 00:52:44;;;;;;;0.20;0.20;;;;;;;;;;5025124;28;20037;-88
2023/10/02 00:55:12;;;;;;;0.20;0.00;;;;;;;;;;5020265;28;20446;-88
2023/10/02 00:57:38;;;;;;;0.73;0.38;;;;;;;;;;5008583;28;20076;-87
2023/10/02 01:00:07;;;;;;;0.57;0.32;;;;;;;;;;5010158;28;20061;-87
2023/10/02 01:02:39;;;;;;;0.32;0.20;;;;;;;;;;4999922;28;20085;-87
2023/10/02 01:05:06;;;;;;;0.93;0.30;;;;;;;;;;5011877;28;20033;-88
2023/10/02 01:07:33;;;;;;;2.40;0.45;;;;;;;;;;5018987;28;20443;-86
2023/10/02 01:10:07;;;;;;;0.60;0.40;;;;;;;;;;5015147;28;20046;-86
2023/10/02 01:12:43;;;;;;;0.35;0.35;;;;;;;;;;5013912;28;20107;-87
2023/10/02 01:15:13;;;;;;;0.20;0.20;;;;;;;;;;4999745;28;20045;-86
2023/10/02 01:17:40;;;;;;;0.20;0.20;;;;;;;;;;5003043;28;20084;-84
2023/10/02 01:20:20;;;;;;;0.65;0.65;;;;;;;;;;5012028;28;20113;-86
2023/10/02 01:22:51;;;;;;;0.20;0.10;;;;;;;;;;5012687;28;20374;-86
2023/10/02 01:25:23;;;;;;;0.30;0.28;;;;;;;;;;4996678;28;20075;-86
2023/10/02 01:27:56;;;;;;;0.85;0.63;;;;;;;;;;5012161;28;20033;-87
2023/10/02 01:30:23;;;;;;;0.38;0.38;;;;;;;;;;5013817;28;20034;-86
2023/10/02 01:33:06;;;;;;;0.55;0.40;;;;;;;;;;5031134;28;20480;-87
2023/10/02 01:35:32;;;;;;;0.20;0.10;;;;;;;;;;4998872;28;20041;-86
2023/10/02 01:37:58;;;;;;;0.30;0.30;;;;;;;;;;5030377;28;20120;-87
2023/10/02 01:40:33;;;;;;;0.43;0.43;;;;;;;;;;5004551;28;20159;-86
2023/10/02 01:43:12;;;;;;;1.23;1.15;;;;;;;;;;5021142;28;20045;-85
2023/10/02 01:45:44;;;;;;;0.20;0.17;;;;;;;;;;5022411;28;20060;-85
2023/10/02 01:48:12;;;;;;;;;;;;;;;;;;5023516;28;20120;-85
2023/10/02 01:50:38;;;;;;;0.50;0.50;;;;;;;;;;5023012;28;19948;-85
2023/10/02 01:53:07;;;;;;;2.83;0.68;;;;;;;;;;5006268;28;20037;-88
2023/10/02 01:55:36;;;;;;;0.50;0.28;;;;;;;;;;5023258;28;20045;-89
2023/10/02 01:58:18;;;;;;;0.20;0.10;;;;;;;;;;5020419;28;20037;-85
2023/10/02 02:00:47;;;;;;;0.20;0.10;;;;;;;;;;5026155;28;20128;-86
2023/10/02 02:03:17;;;;;;;0.20;0.10;;;;;;;;;;5005909;28;20128;-87
2023/10/02 02:05:45;;;;;;;0.95;0.40;;;;;;;;;;5011681;28;20068;-86
2023/10/02 02:08:21;;;;;;;0.40;0.22;;;;;;;;;;5027154;28;20072;-85
2023/10/02 02:10:54;;;;;;;0.20;0.08;;;;;;;;;;5041962;28;20072;-85
2023/10/02 02:13:21;;;;;;;0.40;0.40;;;;;;;;;;5012197;28;20037;-85
2023/10/02 02:15:51;;;;;;;0.20;0.10;;;;;;;;;;5025684;28;20041;-86
2023/10/02 02:18:19;;;;;;;0.20;0.20;;;;;;;;;;5021038;28;20033;-85
2023/10/02 02:20:58;;;;;;;0.30;0.10;;;;;;;;;;5022369;28;20042;-87
2023/10/02 02:23:27;;;;;;;0.20;0.05;;;;;;;;;;5008579;28;20040;-86
2023/10/02 02:25:53;;;;;;;1.02;0.73;;;;;;;;;;5019489;28;20051;-83
2023/10/02 02:28:19;;;;;;;0.20;0.10;;;;;;;;;;5039925;28;20053;-86
2023/10/02 02:30:47;;;;;;;0.20;0.15;;;;;;;;;;5012952;28;20533;-84
2023/10/02 02:33:13;;;;;;;0.20;0.10;;;;;;;;;;5035292;28;20041;-85
2023/10/02 02:35:39;;;;;;;0.68;0.68;;;;;;;;;;5024197;28;20079;-84
2023/10/02 02:38:14;;;;;;;0.20;0.10;;;;;;;;;;5014861;28;20040;-85
2023/10/02 02:40:43;;;;;;;0.20;0.10;;;;;;;;;;5022621;28;20041;-85
2023/10/02 02:43:19;;;;;;;0.57;0.15;;;;;;;;;;5022358;28;20045;-84
2023/10/02 02:45:45;;;;;;;0.20;0.20;;;;;;;;;;5008256;28;20604;-85
2023/10/02 02:48:12;;;;;;;0.68;0.68;;;;;;;;;;5020327;28;20045;-86
2023/10/02 02:50:40;;;;;;;0.52;0.50;;;;;;;;;;5008720;28;21073;-86
2023/10/02 02:53:23;;;;;;;0.30;0.30;;;;;;;;;;5002567;28;20060;-85
2023/10/02 02:56:10;;;;;;;0.30;0.22;;;;;;;;;;5021660;28;20041;-85
2023/10/02 02:58:38;;;;;;;0.55;0.30;;;;;;;;;;5027330;28;20037;-84
2023/10/02 03:01:06;;;;;;;0.40;0.30;;;;;;;;;;5043661;28;20416;-84
2023/10/02 03:03:35;;;;;;;0.30;0.30;;;;;;;;;;5015627;28;20034;-85
2023/10/02 03:06:04;;;;;;;0.63;0.35;;;;;;;;;;5027080;28;20516;-87
2023/10/02 03:08:39;;;;;;;1.23;0.43;;;;;;;;;;5008264;28;20038;-86
2023/10/02 03:11:06;;;;;;;0.20;0.17;;;;;;;;;;5029985;28;20041;-86
2023/10/02 03:13:34;;;;;;;0.20;0.10;;;;;;;;;;5025454;28;20501;-86
2023/10/02 03:16:08;;;;;;;0.30;0.10;;;;;;;;;;5028023;28;20600;-86
2023/10/02 03:18:37;;;;;;;0.35;0.35;;;;;;;;;;5006688;28;20033;-85
2023/10/02 03:21:14;;;;;;;0.20;0.10;;;;;;;;;;5024229;28;20890;-84
2023/10/02 03:23:43;;;;;;;0.20;0.10;;;;;;;;;;5024531;28;20048;-85
2023/10/02 03:29:02;;;;;;;0.70;0.68;;;;;;;;;;5026559;28;20140;-85
2023/10/02 03:31:35;;;;;;;0.30;0.20;;;;;;;;;;5022542;28;20536;-85
2023/10/02 03:34:24;;;;;;;0.47;0.47;;;;;;;;;;5030189;28;20124;-86
2023/10/02 03:36:48;;;;;;;0.20;0.10;;;;;;;;;;5020405;28;20053;-85
2023/10/02 03:39:23;;;;;;;0.75;0.75;;;;;;;;;;5051058;28;20128;-85
2023/10/02 03:41:55;;;;;;;0.20;0.10;;;;;;;;;;5009332;28;20481;-84
2023/10/02 03:44:22;;;;;;;0.28;0.08;;;;;;;;;;5044634;28;20505;-85
2023/10/02 03:46:51;;;;;;;0.20;0.00;;;;;;;;;;5007130;28;20037;-85
2023/10/02 03:49:19;;;;;;;0.22;0.13;;;;;;;;;;5025987;28;20152;-84
2023/10/02 03:51:45;;;;;;;0.57;0.40;;;;;;;;;;5022419;28;20521;-86
2023/10/02 03:54:18;;;;;;;0.25;0.15;;;;;;;;;;5023917;28;20037;-86
2023/10/02 03:56:47;;;;;;;0.85;0.77;;;;;;;;;;5025261;28;20073;-85
2023/10/02 03:59:16;;;;;;;0.25;0.25;;;;;;;;;;5020702;28;20053;-85
2023/10/02 04:01:43;;;;;;;0.45;0.30;;;;;;;;;;5024166;28;20095;-85
2023/10/02 04:06:44;;;;;;;0.20;0.00;;;;;;;;;;5023874;28;20064;-86
2023/10/02 04:11:48;;;;;;;0.20;0.00;;;;;;;;;;5019108;28;20107;-85
2023/10/02 04:14:18;;;;;;;0.28;0.28;;;;;;;;;;5018712;28;21383;-84
2023/10/02 04:17:01;;;;;;;1.35;0.80;;;;;;;;;;5004025;28;20667;-86
2023/10/02 04:19:27;;;;;;;0.20;0.20;;;;;;;;;;5018331;28;20091;-86
2023/10/02 04:21:56;;;;;;;0.40;0.35;;;;;;;;;;5034988;28;20616;-84
2023/10/02 04:24:25;;;;;;;1.50;0.98;;;;;;;;;;5019424;28;20128;-85
2023/10/02 04:26:54;;;;;;;0.50;0.40;;;;;;;;;;5019652;28;20428;-83
2023/10/02 04:32:11;;;;;;;1.05;0.52;;;;;;;;;;5035317;28;20041;-86
2023/10/02 04:34:37;;;;;;;0.20;0.10;;;;;;;;;;5019410;28;20521;-86
2023/10/02 04:37:19;;;;;;;0.30;0.30;;;;;;;;;;5016582;28;20175;-85
2023/10/02 04:42:25;;;;;;;0.75;0.47;;;;;;;;;;5021679;28;20559;-84
2023/10/02 04:44:58;;;;;;;1.10;0.40;;;;;;;;;;5017191;28;20045;-86
2023/10/02 04:47:26;;;;;;;0.20;0.10;;;;;;;;;;5020443;28;20041;-84
2023/10/02 04:55:41;;;;;;;0.57;0.50;;;;;;;;;;5017812;28;20470;-84
2023/10/02 04:58:14;;;;;;;0.22;0.13;;;;;;;;;;4999452;28;20045;-84
2023/10/02 05:03:36;;;;;;;0.20;0.10;;;;;;;;;;5016921;28;20122;-84
2023/10/02 05:06:03;;;;;;;2.10;0.20;;;;;;;;;;5029372;22;20057;-82
2023/10/02 05:11:24;;;;;;;0.68;0.68;;;;;;;;;;4991868;28;20050;-81
2023/10/02 05:13:59;;;;;;;1.17;0.55;;;;;;;;;;4973375;28;20050;-81
2023/10/02 05:16:46;;;;;;;1.23;0.85;;;;;;;;;;4974060;28;20141;-82
2023/10/02 05:19:14;;;;;;;0.60;0.52;;;;;;;;;;4973327;28;20038;-80
2023/10/02 05:21:50;;;;;;;1.95;0.43;;;;;;;;;;4970215;28;20053;-80
2023/10/02 05:24:17;;;;;;;1.85;0.45;;;;;;;;;;4968845;28;20069;-83
2023/10/02 05:26:44;;;;;;;0.35;0.28;;;;;;;;;;4974117;28;20471;-80
2023/10/02 05:29:17;;;;;;;0.30;0.30;;;;;;;;;;4978249;28;21546;-83
2023/10/02 05:31:45;;;;;;;0.55;0.52;;;;;;;;;;4994518;28;20038;-80
2023/10/02 05:34:24;;;;;;;0.82;0.60;;;;;;;;;;4980940;28;20633;-80
2023/10/02 05:39:31;;;;;;;1.27;1.17;;;;;;;;;;4981279;28;20100;-82
2023/10/02 05:42:05;;;;;;;0.47;0.32;;;;;;;;;;4991509;28;20047;-83
2023/10/02 05:44:35;;;;;;;0.35;0.32;;;;;;;;;;4978346;28;20121;-81
2023/10/02 05:47:05;;;;;;;0.20;0.10;;;;;;;;;;4978557;28;20104;-81
2023/10/02 05:49:31;;;;;;;0.40;0.38;;;;;;;;;;4982178;28;20111;-80
2023/10/02 05:52:00;;;;;;;0.45;0.40;;;;;;;;;;4982786;28;20499;-82
2023/10/02 05:54:29;;;;;;;1.00;0.55;;;;;;;;;;4979260;28;20058;-84
2023/10/02 05:57:13;;;;;;;0.85;0.85;;;;;;;;;;4977550;28;20084;-81
2023/10/02 05:59:47;;;;;;;1.30;0.70;;;;;;;;;;4979018;28;20526;-82
2023/10/02 06:02:14;;;;;;;0.50;0.43;;;;;;;;;;4979662;28;20578;-83
2023/10/02 06:04:47;;;;;;;0.30;0.28;;;;;;;;;;4983388;28;20565;-81
2023/10/02 06:07:19;;;;;;;1.55;0.40;;;;;;;;;;4985477;28;20572;-82
2023/10/02 06:09:46;;;;;;;1.05;0.40;;;;;;;;;;4981263;28;20065;-82
2023/10/02 06:12:12;;;;;;;3.95;0.65;;;;;;;;;;4986049;28;20046;-81
2023/10/02 06:14:45;;;;;;;0.20;0.20;;;;;;;;;;4985843;28;20137;-80
2023/10/02 06:17:11;;;;;;;0.52;0.30;;;;;;;;;;4985943;28;20046;-82
2023/10/02 06:19:44;;;;;;;1.65;0.25;;;;;;;;;;5000943;28;20039;-82
2023/10/02 06:22:13;;;;;;;0.40;0.40;;;;;;;;;;4966739;28;20521;-83
2023/10/02 06:24:43;;;;;;;1.05;0.95;;;;;;;;;;4983499;28;20043;-83
2023/10/02 06:27:16;;;;;;;0.80;0.75;;;;;;;;;;4972347;28;20294;-82
2023/10/02 06:29:49;;;;;;;0.65;0.60;;;;;;;;;;4986854;28;20078;-83
2023/10/02 06:32:19;;;;;;;3.95;0.82;;;;;;;;;;4981867;28;20074;-83
2023/10/02 06:34:46;;;;;;;2.88;0.52;;;;;;;;;;4981728;28;20046;-82
2023/10/02 06:37:13;;;;;;;2.75;0.73;;;;;;;;;;4971404;28;20034;-82
2023/10/02 06:39:41;;;;;;;0.68;0.63;;;;;;;;;;4966070;28;20358;-82
2023/10/02 06:42:15;;;;;;;0.25;0.17;;;;;;;;;;4984271;28;20510;-81
2023/10/02 06:44:52;;;;;;;0.20;0.10;;;;;;;;;;4967632;28;21777;-81
2023/10/02 06:47:18;;;;;;;0.60;0.32;;;;;;;;;;4969927;28;20169;-82
2023/10/02 06:49:44;;;;;;;0.50;0.50;;;;;;;;;;5002190;28;20049;-82
2023/10/02 06:52:15;;;;;;;0.55;0.47;;;;;;;;;;4983442;28;20121;-82
2023/10/02 06:54:45;;;;;;;0.60;0.45;;;;;;;;;;5005056;28;20046;-83
2023/10/02 06:57:13;;;;;;;0.43;0.43;;;;;;;;;;4993317;28;20042;-83
2023/10/02 06:59:51;;;;;;;0.95;0.32;;;;;;;;;;4984813;28;20609;-81
2023/10/02 07:02:17;;;;;;;0.68;0.68;;;;;;;;;;5000816;28;20042;-82
2023/10/02 07:04:44;;;;;;;0.20;0.10;;;;;;;;;;5006049;28;20057;-81
2023/10/02 07:07:12;;;;;;;0.20;0.10;;;;;;;;;;4990283;28;20050;-83
2023/10/02 07:09:39;;;;;;;0.68;0.52;;;;;;;;;;4991554;28;20105;-81
2023/10/02 07:12:09;;;;;;;0.28;0.28;;;;;;;;;;4987188;28;20598;-82
2023/10/02 07:14:36;;;;;;;1.25;0.32;;;;;;;;;;4974156;28;20034;-82
2023/10/02 07:17:11;;;;;;;0.20;0.10;;;;;;;;;;4989681;28;20050;-82
2023/10/02 07:19:38;;;;;;;0.22;0.20;;;;;;;;;;4983956;28;20248;-81
2023/10/02 07:22:10;;;;;;;1.17;0.30;;;;;;;;;;4969577;28;20521;-81
2023/10/02 07:24:40;;;;;;;;;;;;;;;;;;4973410;28;20141;-82
2023/10/02 07:27:22;;;;;;;0.20;0.20;;;;;;;;;;4997716;28;20352;-83
2023/10/02 07:29:51;;;;;;;2.05;0.55;;;;;;;;;;4987174;28;20452;-83
2023/10/02 07:32:18;;;;;;;0.38;0.28;;;;;;;;;;4991441;28;20346;-83
2023/10/02 07:34:45;;;;;;;0.20;0.15;;;;;;;;;;4992530;28;20511;-81
2023/10/02 07:37:13;;;;;;;0.52;0.52;;;;;;;;;;4994229;28;20042;-80
2023/10/02 07:39:40;;;;;;;0.50;0.40;;;;;;;;;;4975064;28;20085;-81
2023/10/02 07:42:09;;;;;;;0.20;0.10;;;;;;;;;;4976024;28;20049;-82
2023/10/02 07:44:39;;;;;;;0.75;0.75;;;;;;;;;;4987404;28;20061;-80
2023/10/02 07:47:16;;;;;;;0.50;0.35;;;;;;;;;;5005602;28;20354;-80
2023/10/02 07:49:46;;;;;;;0.30;0.22;;;;;;;;;;4991880;28;20054;-80
2023/10/02 07:52:26;;;;;;;0.50;0.35;;;;;;;;;;4987362;28;20503;-82
2023/10/02 07:54:58;;;;;;;0.68;0.40;;;;;;;;;;4968705;28;20117;-80
2023/10/02 07:57:30;;;;;;;0.20;0.20;;;;;;;;;;4975969;28;20065;-81
2023/10/02 07:59:57;;;;;;;0.52;0.52;;;;;;;;;;4986221;28;20038;-83
2023/10/02 08:02:23;;;;;;;0.43;0.43;;;;;;;;;;5002510;28;20759;-82
2023/10/02 08:04:53;;;;;;;0.40;0.10;;;;;;;;;;4976785;28;20384;-82
2023/10/02 08:07:19;;;;;;;0.20;0.15;;;;;;;;;;4973736;28;20034;-83
2023/10/02 08:09:48;;;;;;;1.25;0.60;;;;;;;;;;4991363;28;20047;-81
2023/10/02 08:12:29;;;;;;;0.28;0.28;;;;;;;;;;4967493;28;20041;-81
2023/10/02 08:14:59;;;;;;;0.30;0.30;;;;;;;;;;5000888;28;20038;-82
2023/10/02 08:18:03;;;;;;;0.30;0.20;;;;;;;;;;4984498;28;20034;-80
2023/10/02 08:20:31;;;;;;;0.70;0.32;;;;;;;;;;4982638;28;20138;-83
2023/10/02 08:22:57;;;;;;;;;;;;;;;;;;4972175;28;20053;-80
2023/10/02 08:25:23;;;;;;;0.82;0.30;;;;;;;;;;4974091;28;19925;-82
2023/10/02 08:27:55;;;;;;;0.50;0.50;;;;;;;;;;4979526;28;20053;-79
2023/10/02 08:30:29;;;;;;;0.20;0.10;;;;;;;;;;4967295;28;20069;-83
2023/10/02 08:33:05;;;;;;;0.65;0.57;;;;;;;;;;4992088;28;20061;-80
2023/10/02 08:35:32;;;;;;;0.28;0.28;;;;;;;;;;4982996;28;20038;-81
2023/10/02 08:37:59;;;;;;;0.73;0.73;;;;;;;;;;4975973;28;20038;-84
2023/10/02 08:40:25;;;;;;;1.13;0.90;;;;;;;;;;4986235;28;20625;-82
2023/10/02 08:42:53;;;;;;;0.98;0.73;;;;;;;;;;4990220;28;20042;-81
2023/10/02 08:45:20;;;;;;;0.47;0.47;;;;;;;;;;4984997;28;20078;-82
2023/10/02 08:47:49;;;;;;;0.45;0.22;;;;;;;;;;4989112;28;20049;-81
2023/10/02 08:50:18;;;;;;;0.50;0.22;;;;;;;;;;4988518;28;20045;-79
2023/10/02 08:52:50;;;;;;;0.25;0.25;;;;;;;;;;4990417;28;20038;-81
2023/10/02 08:55:37;;;;;;;0.20;0.10;;;;;;;;;;4989881;28;20088;-81
2023/10/02 08:58:16;;;;;;;0.20;0.10;;;;;;;;;;4984932;28;20105;-80
2023/10/02 09:03:43;;;;;;;0.57;0.40;;;;;;;;;;4983005;28;20426;-82
2023/10/02 09:11:41;;;;;;;3.95;0.75;;;;;;;;;;4987340;28;20082;-81
2023/10/02 09:14:21;;;;;;;0.28;0.28;;;;;;;;;;4965312;28;20038;-83
2023/10/02 09:17:12;;;;;;;0.20;0.15;;;;;;;;;;5006105;28;20138;-83
2023/10/02 09:19:39;;;;;;;0.20;0.03;;;;;;;;;;4989061;28;20046;-80
2023/10/02 09:22:06;;;;;;;0.22;0.20;;;;;;;;;;4988188;28;20338;-82
2023/10/02 09:24:36;;;;;;;0.70;0.52;;;;;;;;;;4970879;28;20042;-80
2023/10/02 09:27:25;;;;;;;0.35;0.28;;;;;;;;;;4972287;28;20088;-82
2023/10/02 09:32:50;;;;;;;0.40;0.35;;;;;;;;;;4985045;28;20070;-80
2023/10/02 09:35:29;;;;;;;0.20;0.10;;;;;;;;;;4996053;28;20550;-81
2023/10/02 09:38:04;;;;;;;0.25;0.25;;;;;;;;;;4990699;28;20046;-82
2023/10/02 09:40:54;;;;;;;0.30;0.30;;;;;;;;;;4990291;28;20101;-82
2023/10/02 09:43:24;;;;;;;0.40;0.30;;;;;;;;;;4985388;28;20038;-80
2023/10/02 09:46:00;;;;;;;0.50;0.30;;;;;;;;;;4989497;28;20440;-80
2023/10/02 09:51:20;;;;;;;0.22;0.13;;;;;;;;;;4985231;28;20134;-82
2023/10/02 09:54:17;;;;;;;0.25;0.25;;;;;;;;;;4967741;28;20085;-82
2023/10/02 09:57:04;;;;;;;0.43;0.43;;;;;;;;;;4987014;28;20117;-80
2023/10/02 09:59:37;;;;;;;1.25;1.15;;;;;;;;;;4970620;28;20317;-83
2023/10/02 10:02:19;;;;;;;0.20;0.05;;;;;;;;;;4989740;28;20111;-83
2023/10/02 10:05:00;;;;;;;0.57;0.55;;;;;;;;;;4990393;28;20093;-86
2023/10/02 10:07:37;;;;;;;0.93;0.47;;;;;;;;;;4989137;28;20031;-79
2023/10/02 10:10:27;;;;;;;0.85;0.85;;;;;;;;;;4995155;28;20053;-82
2023/10/02 10:12:55;;;;;;;1.00;0.88;;;;;;;;;;4992310;28;20219;-82
2023/10/02 10:15:27;;;;;;;1.27;1.17;;;;;;;;;;4979096;28;20058;-81
2023/10/02 10:17:55;;;;;;;0.30;0.30;;;;;;;;;;4972679;28;20102;-82
2023/10/02 10:20:22;;;;;;;0.28;0.28;;;;;;;;;;4974106;28;20321;-80
2023/10/02 10:22:55;;;;;;;0.95;0.63;;;;;;;;;;4996617;28;20073;-83
2023/10/02 10:27:59;;;;;;;0.50;0.38;;;;;;;;;;4998520;28;20565;-81
2023/10/02 10:30:27;;;;;;;0.88;0.88;;;;;;;;;;4993345;28;20042;-79
2023/10/02 10:35:48;;;;;;;0.30;0.30;;;;;;;;;;4991940;28;20046;-83
2023/10/02 10:38:36;;;;;;;1.02;1.00;;;;;;;;;;4976592;28;20042;-82
2023/10/02 10:41:06;;;;;;;1.23;0.93;;;;;;;;;;4995310;28;20046;-81
2023/10/02 10:43:44;;;;;;;1.42;0.63;;;;;;;;;;5001479;28;20077;-81
2023/10/02 10:46:13;;;;;;;1.17;1.08;;;;;;;;;;4992820;28;20034;-81
2023/10/02 10:48:40;;;;;;;0.50;0.50;;;;;;;;;;4974536;28;20038;-81
2023/10/02 10:51:20;;;;;;;0.20;0.17;;;;;;;;;;4989020;28;20108;-81
2023/10/02 10:54:00;;;;;;;1.30;0.45;;;;;;;;;;4990848;28;20054;-82
2023/10/02 10:56:27;;;;;;;2.38;0.43;;;;;;;;;;4987517;28;20046;-83
2023/10/02 10:59:06;;;;;;;0.30;0.25;;;;;;;;;;4978605;28;20034;-83
2023/10/02 11:01:35;;;;;;;0.70;0.70;;;;;;;;;;4992433;28;20046;-82
2023/10/02 11:04:04;;;;;;;0.82;0.68;;;;;;;;;;4990809;28;20042;-81
2023/10/02 11:06:36;;;;;;;0.20;0.20;;;;;;;;;;4990671;23;23525;-87
2023/10/02 11:09:21;;;;;;;0.47;0.47;;;;;;;;;;4993807;28;20042;-85
2023/10/02 11:12:02;;;;;;;0.75;0.20;;;;;;;;;;5019347;28;20405;-86
2023/10/02 11:14:38;;;;;;;0.63;0.43;;;;;;;;;;4982954;28;20523;-87
2023/10/02 11:17:11;;;;;;;0.68;0.68;;;;;;;;;;5001655;28;20959;-85
2023/10/02 11:19:46;;;;;;;0.20;0.10;;;;;;;;;;4970980;28;20511;-86
2023/10/02 11:25:25;;;;;;;;;;;;;;;;;;4987091;28;20049;-85
2023/10/02 11:27:59;;;;;;;0.20;0.10;;;;;;;;;;4984611;28;20383;-84
2023/10/02 11:30:32;;;;;;;0.82;0.63;;;;;;;;;;4983648;28;20415;-86
2023/10/02 11:33:04;;;;;;;0.43;0.22;;;;;;;;;;5004149;28;20053;-86
2023/10/02 11:35:37;;;;;;;;;;;;;;;;;;4969455;28;20113;-84
2023/10/02 11:38:04;;;;;;;0.32;0.30;;;;;;;;;;4987618;28;20293;-86
2023/10/02 11:40:30;;;;;;;1.50;0.65;;;;;;;;;;4971947;28;20491;-86
2023/10/02 11:42:59;;;;;;;0.30;0.20;;;;;;;;;;4974312;28;20047;-88
2023/10/02 11:45:29;;;;;;;1.35;1.10;;;;;;;;;;4980482;28;20100;-83
2023/10/02 11:47:55;;;;;;;0.40;0.28;;;;;;;;;;4969618;28;20121;-85
2023/10/02 11:50:21;;;;;;;0.20;0.10;;;;;;;;;;4967370;28;20885;-85
2023/10/02 11:52:48;;;;;;;0.52;0.52;;;;;;;;;;4985061;28;20046;-84
2023/10/02 11:55:17;;;;;;;0.57;0.57;;;;;;;;;;4987797;28;20073;-84
2023/10/02 11:57:44;;;;;;;0.70;0.70;;;;;;;;;;4986587;28;20057;-85
2023/10/02 12:00:14;;;;;;;0.20;0.15;;;;;;;;;;4984766;28;20069;-85
2023/10/02 12:02:45;;;;;;;0.30;0.15;;;;;;;;;;4985562;28;20050;-84
2023/10/02 12:05:19;;;;;;;0.32;0.20;;;;;;;;;;4973594;28;20054;-84
2023/10/02 12:07:48;;;;;;;0.50;0.20;;;;;;;;;;4966486;28;20403;-85
2023/10/02 12:10:23;;;;;;;0.55;0.55;;;;;;;;;;4982906;28;20050;-83
2023/10/02 12:12:49;;;;;;;2.08;0.80;;;;;;;;;;4983759;28;20046;-84
2023/10/02 12:15:15;;;;;;;3.70;1.33;;;;;;;;;;4986780;28;20103;-85
2023/10/02 12:18:05;;;;;;;0.68;0.68;;;;;;;;;;4969125;28;20068;-85
2023/10/02 12:20:39;;;;;;;1.27;1.17;;;;;;;;;;4981462;28;20121;-84
2023/10/02 12:23:05;;;;;;;1.08;0.45;;;;;;;;;;4980490;28;20038;-84
2023/10/02 12:25:36;;;;;;;0.60;0.40;;;;;;;;;;4984175;28;20041;-84
2023/10/02 12:28:02;;;;;;;0.20;0.05;;;;;;;;;;4969775;28;20046;-83
2023/10/02 12:30:28;;;;;;;0.95;0.73;;;;;;;;;;4973485;28;20073;-84
2023/10/02 12:32:54;;;;;;;0.28;0.15;;;;;;;;;;4985628;28;20039;-84
2023/10/02 12:35:20;;;;;;;0.50;0.30;;;;;;;;;;4969506;28;20042;-84
2023/10/02 12:37:47;;;;;;;1.05;0.50;;;;;;;;;;4969273;28;20042;-84
2023/10/02 12:40:18;;;;;;;1.27;0.40;;;;;;;;;;4962910;28;20499;-84
2023/10/02 12:42:45;;;;;;;0.20;0.20;;;;;;;;;;4985514;28;20041;-85
2023/10/02 12:45:11;;;;;;;0.35;0.35;;;;;;;;;;4965314;28;20418;-84
2023/10/02 12:47:38;;;;;;;0.20;0.15;;;;;;;;;;4983718;28;20046;-85
2023/10/02 12:50:10;;;;;;;0.95;0.77;;;;;;;;;;4986351;28;20089;-85
2023/10/02 12:52:36;;;;;;;0.20;0.20;;;;;;;;;;4979308;28;20066;-85
2023/10/02 12:55:02;;;;;;;0.20;0.20;;;;;;;;;;4967906;28;20260;-84
2023/10/02 12:57:51;;;;;;;0.43;0.43;;;;;;;;;;4985788;28;20078;-84
2023/10/02 13:00:17;;;;;;;0.40;0.22;;;;;;;;;;4981199;28;20051;-84
2023/10/02 13:02:50;;;;;;;0.32;0.32;;;;;;;;;;4984422;28;20230;-84
2023/10/02 13:05:35;;;;;;;0.40;0.25;;;;;;;;;;4984055;28;20035;-84
2023/10/02 13:08:04;;;;;;;0.20;0.10;;;;;;;;;;4977798;28;20050;-84
2023/10/02 13:10:39;;;;;;;0.20;0.20;;;;;;;;;;4985774;28;20042;-83
2023/10/02 13:13:18;;;;;;;0.52;0.52;;;;;;;;;;4987150;28;20042;-85
2023/10/02 13:16:01;;;;;;;0.28;0.20;;;;;;;;;;4965420;28;20076;-84
2023/10/02 13:18:33;;;;;;;0.20;0.03;;;;;;;;;;4984635;28;20038;-84
2023/10/02 13:21:03;;;;;;;0.30;0.30;;;;;;;;;;4977780;28;20045;-84
2023/10/02 13:23:46;;;;;;;1.48;0.40;;;;;;;;;;4972775;28;20141;-85
2023/10/02 13:26:21;;;;;;;0.50;0.30;;;;;;;;;;4980843;28;20098;-85
2023/10/02 13:29:05;;;;;;;0.85;0.30;;;;;;;;;;4961326;28;20089;-84
2023/10/02 13:31:32;;;;;;;0.60;0.60;;;;;;;;;;4965419;28;20042;-83
2023/10/02 13:34:14;;;;;;;0.20;0.13;;;;;;;;;;4982899;28;20061;-84
2023/10/02 13:36:40;;;;;;;0.20;0.10;;;;;;;;;;4986815;28;20048;-83
2023/10/02 13:39:19;;;;;;;0.63;0.60;;;;;;;;;;4968746;28;20543;-84
2023/10/02 13:41:46;;;;;;;0.20;0.20;;;;;;;;;;4982177;28;20049;-83
2023/10/02 13:44:17;;;;;;;1.00;0.43;;;;;;;;;;4983573;28;20121;-83
2023/10/02 13:46:44;;;;;;;0.53;0.37;;;;;;;;;;4982954;28;20057;-83
2023/10/02 13:49:10;;;;;;;0.20;0.10;;;;;;;;;;4980257;28;20482;-83
2023/10/02 13:51:37;;;;;;;0.32;0.30;;;;;;;;;;4977191;28;20157;-82
2023/10/02 13:54:03;;;;;;;1.20;0.77;;;;;;;;;;4981136;28;20049;-81
2023/10/02 13:56:32;;;;;;;0.20;0.10;;;;;;;;;;4984040;28;20449;-83
2023/10/02 13:58:59;;;;;;;0.20;0.10;;;;;;;;;;4985676;28;20042;-82
2023/10/02 14:01:26;;;;;;;0.20;0.08;;;;;;;;;;4984403;28;20031;-83
2023/10/02 14:03:55;;;;;;;0.25;0.10;;;;;;;;;;4980678;28;20046;-83
2023/10/02 14:06:25;;;;;;;0.22;0.10;;;;;;;;;;4966078;28;20042;-83
2023/10/02 14:08:52;;;;;;;0.20;0.10;;;;;;;;;;4983194;28;20553;-82
2023/10/02 14:11:28;;;;;;;0.25;0.20;;;;;;;;;;4988208;28;20050;-82
2023/10/02 14:13:56;;;;;;;0.20;0.20;;;;;;;;;;4986948;28;20121;-82
2023/10/02 14:16:24;;;;;;;0.20;0.10;;;;;;;;;;5001058;28;20475;-84
2023/10/02 14:18:55;;;;;;;0.95;0.30;;;;;;;;;;4986451;28;20108;-82
2023/10/02 14:21:23;;;;;;;0.40;0.40;;;;;;;;;;4969541;28;20038;-84
2023/10/02 14:23:52;;;;;;;0.20;0.10;;;;;;;;;;4985250;28;20291;-83
2023/10/02 14:26:19;;;;;;;0.30;0.20;;;;;;;;;;4989062;28;20058;-83
2023/10/02 14:28:46;;;;;;;0.30;0.30;;;;;;;;;;4980328;28;20065;-83
2023/10/02 14:31:12;;;;;;;0.20;0.17;;;;;;;;;;4985649;28;20050;-83
2023/10/02 14:33:43;;;;;;;0.25;0.10;;;;;;;;;;4969332;28;20582;-84
2023/10/02 14:36:09;;;;;;;0.20;0.10;;;;;;;;;;4985414;28;20450;-83
2023/10/02 14:38:37;;;;;;;0.20;0.10;;;;;;;;;;4999274;28;20038;-83
2023/10/02 14:41:09;;;;;;;0.28;0.28;;;;;;;;;;4974958;28;20088;-83
2023/10/02 14:43:36;;;;;;;1.48;0.38;;;;;;;;;;4984015;28;20566;-84
2023/10/02 14:46:04;;;;;;;0.20;0.10;;;;;;;;;;4980249;28;20046;-85
2023/10/02 14:48:32;;;;;;;0.20;0.10;;;;;;;;;;4988195;28;20049;-84
2023/10/02 14:51:22;;;;;;;1.45;0.32;;;;;;;;;;4980381;28;20054;-84
2023/10/02 14:53:54;;;;;;;0.22;0.22;;;;;;;;;;4980328;28;20042;-84
2023/10/02 14:56:26;;;;;;;0.38;0.30;;;;;;;;;;4974220;28;20077;-84
2023/10/02 14:59:33;;;;;;;0.20;0.10;;;;;;;;;;4983642;28;20116;-84
2023/10/02 15:02:23;;;;;;;0.32;0.32;;;;;;;;;;4968665;28;20049;-83
2023/10/02 15:05:16;;;;;;;0.20;0.15;;;;;;;;;;4987443;28;20050;-83
2023/10/02 15:08:05;;;;;;;0.20;0.13;;;;;;;;;;4981954;28;20074;-84
2023/10/02 15:10:49;;;;;;;1.50;0.90;;;;;;;;;;4978692;28;20507;-84
2023/10/02 15:13:25;;;;;;;0.70;0.55;;;;;;;;;;4968454;28;20514;-85
2023/10/02 15:19:19;;;;;;;0.20;0.00;;;;;;;;;;4980886;28;20069;-84
2023/10/02 15:24:55;;;;;;;0.30;0.20;;;;;;;;;;4933633;28;20389;-84
2023/10/02 15:27:28;;;;;;;0.20;0.20;;;;;;;;;;4980477;28;20084;-84
2023/10/02 15:30:12;;;;;;;3.03;0.50;;;;;;;;;;4998942;28;20050;-83
2023/10/02 15:32:39;;;;;;;0.20;0.20;;;;;;;;;;4968285;28;20077;-83
2023/10/02 15:35:22;;;;;;;0.22;0.08;;;;;;;;;;4982520;28;20070;-84
2023/10/02 15:38:01;;;;;;;0.20;0.13;;;;;;;;;;4978454;28;20042;-84
2023/10/02 15:40:27;;;;;;;0.20;0.20;;;;;;;;;;4983574;28;20419;-83
2023/10/02 15:43:07;;;;;;;0.20;0.10;;;;;;;;;;4967136;28;20038;-83
2023/10/02 15:45:36;;;;;;;0.22;0.22;;;;;;;;;;4982864;28;20050;-82
2023/10/02 15:48:27;;;;;;;0.40;0.35;;;;;;;;;;4983998;28;20287;-84
2023/10/02 15:50:53;;;;;;;0.20;0.10;;;;;;;;;;4983574;28;20053;-82
2023/10/02 15:53:19;;;;;;;0.82;0.82;;;;;;;;;;4984736;28;20034;-83
2023/10/02 15:55:46;;;;;;;1.65;0.63;;;;;;;;;;4983556;28;20068;-82
2023/10/02 15:58:12;;;;;;;0.30;0.25;;;;;;;;;;4981906;28;20058;-82
2023/10/02 16:00:40;;;;;;;0.25;0.17;;;;;;;;;;4976176;28;20046;-82
2023/10/02 16:03:07;;;;;;;0.20;0.10;;;;;;;;;;4959273;28;20053;-82
2023/10/02 16:05:34;;;;;;;0.50;0.30;;;;;;;;;;4979097;28;20045;-82
2023/10/02 16:08:00;;;;;;;0.20;0.10;;;;;;;;;;4961533;28;20038;-81
2023/10/02 16:10:26;;;;;;;0.22;0.10;;;;;;;;;;4975896;28;20072;-81